Main page
METAR-TAF:

METAR-TAF

Airports :

N'Djamena, Chad

N'Djamena International Airport

latitude: 12-08N, longitude: 015-02E, elevation: 295 m

Current weather observation

The report was made 26 minutes ago, at 16:00 UTC
Wind 7 kt from the North, varying between North and East/Southeast
Temperature 43°C
Humidity 10%
Pressure 1004 hPa
Visibility 10 km or more
no clouds below 1500 m and no cumulonimbus

METAR: FTTJ 251600Z 35007KT 350V110 CAVOK 43/05 Q1004 NOSIG

Time: 17:26 (16:26 UTC)

Forecast

The report was made 5 hours and 26 minutes ago, at 11:00 UTC
Forecast valid from 25 at 12 UTC to 26 at 18 UTC
Wind 6 kt from the West
Visibility: 6000 m
Few clouds at a height of 4000 ft
Temporary
from 25 at 22 UTC to 26 at 06 UTC
Visibility: 2000 m
widespread dust
Becoming
from 26 at 06 UTC to 26 at 08 UTC
Wind 12 kt from the East/Northeast

TAF: FTTJ 251100Z 2512/2618 27006KT 6000 FEW040 TEMPO 2522/2606 2000 DU BECMG 2606/2608 07012KT

Weather observations and forecasts of more than 4000 airports (METAR and TAF reports).

The available stations are represented by yellow and red dots on the map.

Hover mouse over dot to see the name of the station.

Then click to see weather observations and forecasts.

To change the map : click on the green buttons with a black cross to zoom in, on the green button with a dash to zoom out, or on the green arrows for adjacent maps.


METAR-TAF: